Weather observations for the past three days for
York, York Municipal Airport
Metric (Imperial)
Date Time (cdt) Wind (kph) Vis. (km) Weather Sky Cond. Temperature (ºC) Relative Humidity Wind Chill (°C) Heat Index (°C) Pressure Precipitation (cm)
Air Dwpt 6 hour altimeter (cm) sea level (mb) 1 hr 3 hr 6 hr
Max. Min.
31 06:35 W 22 16.09 Light Rain NULL 23 22 94% 76.1 0.0
31 06:15 W 19 16.09 Partly Cloudy FEW075 SCT110 23 23 100% 76.02 0.0
31 05:55 W 15 11.27 NULL NULL 23 23 100% 75.97 0.0
31 05:35 W 11 11.27 NULL NULL 23 23 100% 75.92 0.0
31 05:15 W 11 11.27 NULL NULL 23 23 100% 75.92 0.0
31 04:55 SW 11 12.87 NULL NULL 23 23 100% 75.9 0.0
31 04:35 W 13 11.27 NULL NULL 23 23 100% 75.9 0.0
31 04:15 SW 11 9.66 Fog/Mist NULL 22 22 100% 75.9 0.0
31 03:55 SW 7 12.87 NULL NULL 22 22 100% 75.84 0.0
31 03:35 W 9 11.27 NULL NULL 22 22 100% 75.84 0.0
31 03:15 SW 7 16.09 NULL NULL 22 22 100% 75.84 0.0
31 02:55 W 9 8.05 Fog/Mist NULL 22 22 100% 75.82 0.0
31 02:35 SW 7 11.27 NULL NULL 22 22 100% 75.82 0.0
31 02:15 S 6 14.48 NULL NULL 22 22 100% 75.82 0.0
31 01:55 S 7 14.48 NULL NULL 22 22 100% 75.84 0.0
31 01:35 S 7 16.09 NULL NULL 22 22 100% 75.87 0.0
31 01:15 S 6 16.09 Fair CLR 22 22 100% 75.84 0.0
31 00:55 S 11 6.44 Fog/Mist NULL 22 22 100% 75.84 0.0
31 00:35 S 11 14.48 NULL NULL 22 22 100% 75.82 0.0
31 00:15 S 6 14.48 NULL NULL 22 22 100% 75.82 0.0
30 23:55 SE 9 16.09 NULL NULL 23 23 100% 75.82 0.0
30 23:35 SE 7 14.48 NULL NULL 22 22 100% 75.79 0.0
30 23:15 Calm 16.09 Fair CLR 23 23 100% 75.79 0.0
30 22:55 Calm 16.09 NULL NULL 24 24 100% 23 75.79 0.0
30 22:35 NW 7 16.09 NULL NULL 23 23 100% 75.82 0.0
30 21:55 Calm 12.87 NULL NULL 24 24 100% 23 75.82 0.0
30 21:35 Calm 16.09 NULL NULL 24 24 100% 23 75.82 0.0
30 21:15 NW 11 16.09 NULL NULL 24 24 100% 23 75.79 0.0
30 20:55 Calm 14.48 NULL NULL 26 25 94% 28 75.77 0.0
30 20:35 W 6 11.27 NULL NULL 26 26 100% 28 75.77 0.0
30 20:15 Calm 16.09 Fair CLR 27 26 94% 31 75.77 0.0
30 19:55 NW 7 16.09 Fair CLR 28 26 89% 34 75.74 0.0
30 19:35 Calm 16.09 Fair CLR 29 26 84% 36 75.74 0.0
30 19:15 NW 6 16.09 Fair CLR 29 26 84% 36 75.74 0.0
30 18:55 Calm 16.09 Fair CLR 31 25 70% 38 75.74 0.0
30 18:35 Calm 16.09 Fair CLR 31 24 66% 37 75.74 0.0
30 18:15 Calm 16.09 Fair CLR 32 24 63% 38 75.74 0.0
30 17:55 Calm 16.09 Fair CLR 32 23 59% 37 75.74 0.0
30 17:35 SW 6 16.09 Fair CLR 32 22 55% 36 75.74 0.0
30 17:15 SW 11 16.09 Fair CLR 31 22 59% 35 75.72 0.0
30 16:55 S 11 16.09 Fair CLR 31 22 59% 35 75.74 0.0
30 16:35 SW 13 16.09 Fair CLR 31 23 62% 35 75.74 0.0
30 16:15 S 11 16.09 Fair CLR 31 22 59% 35 75.74 0.0
30 15:55 SW 15 16.09 Fair CLR 30 23 66% 34 75.74 0.0
30 15:35 S 15 16.09 Fair CLR 30 23 66% 34 75.77 0.0
30 15:15 S 15 16.09 Fair CLR 29 23 70% 33 75.77 0.0
30 14:55 S 17 16.09 Fair CLR 30 23 66% 34 75.74 0.0
30 14:35 S 15 16.09 Fair CLR 29 23 70% 33 75.74 0.0
30 14:15 S 19 16.09 Fair CLR 30 25 75% 36 75.77 0.0
30 13:55 Vrbl 6 16.09 Fair CLR 30 23 66% 34 75.74 0.0
30 13:35 Vrbl 9 16.09 Fair CLR 30 23 66% 34 75.79 0.0
30 13:15 S 11 16.09 Fair CLR 29 23 70% 33 75.79 0.0
30 12:55 W 7 16.09 Fair CLR 29 22 66% 32 75.77 0.0
30 12:35 NW 13 16.09 Fair CLR 29 23 70% 33 75.74 0.0
30 12:15 W 19 16.09 Fair CLR 29 22 66% 32 75.77 0.0
30 11:55 W 17 16.09 Fair CLR 29 22 66% 32 75.77 0.0
30 11:35 SW 22 16.09 Fair CLR 28 20 62% 30 75.79 0.0
30 11:15 SW 24 16.09 Fair CLR 29 21 62% 31 75.79 0.0
30 10:55 SW 15 16.09 Fair CLR 28 22 70% 31 75.77 0.0
30 10:35 SW 13 16.09 Fair CLR 27 21 70% 29 75.74 0.0
30 10:15 SW 20 16.09 Fair CLR 27 21 70% 29 75.74 0.0
30 09:55 SW 13 16.09 Fair CLR 26 21 74% 27 75.74 0.0
30 09:35 S 11 16.09 Fair CLR 25 21 79% 26 75.74 0.0
30 09:15 S 9 G 22 16.09 Fair CLR 24 21 83% 24 75.74 0.0
30 08:55 S 11 16.09 Fair CLR 25 20 74% 26 75.72 0.0
30 08:35 S 11 16.09 Fair CLR 23 20 83% 75.72 0.0
30 08:15 S 11 16.09 Fair CLR 23 19 78% 75.72 0.0
30 07:55 S 11 16.09 Fair CLR 23 19 78% 75.69 0.0
30 07:35 S 15 16.09 Fair CLR 23 19 78% 75.69 0.0
30 07:15 S 11 16.09 NULL NULL 23 19 78% 75.69 0.0
30 06:55 S 13 16.09 NULL NULL 24 19 74% 25 75.69 0.0
30 06:35 S 19 16.09 NULL NULL 23 19 78% 75.67 0.0
30 06:15 S 17 16.09 Fair CLR 23 20 83% 75.69 0.0
30 05:55 S 15 16.09 NULL NULL 23 20 83% 75.69 0.0
30 05:35 SE 17 16.09 NULL NULL 22 20 88% 75.72 0.0
30 05:15 SE 13 16.09 NULL NULL 22 21 94% 75.74 0.0
30 04:55 SE 13 12.87 Thunderstorm NULL 22 21 94% 75.79 0.0
30 04:35 Calm 16.09 Fair CLR 21 21 100% 75.84 0.0
30 04:15 SW 7 16.09 Fair CLR 22 21 94% 75.84 0.0
30 03:55 W 7 16.09 A Few Clouds FEW120 22 21 94% 75.87 0.0
30 03:35 W 7 16.09 Thunderstorm in Vicinity NULL 22 20 88% 75.87 0.0
30 03:15 W 15 16.09 Thunderstorm in Vicinity NULL 23 20 83% 75.87 0.0
30 02:55 S 13 16.09 NULL NULL 23 20 83% 75.77 0.0
30 02:35 S 13 16.09 NULL NULL 23 20 83% 75.74 0.0
30 02:15 S 13 16.09 NULL NULL 23 20 83% 75.77 0.0
30 01:55 S 11 16.09 NULL NULL 24 20 78% 24 75.74 0.0
30 01:35 S 13 16.09 NULL NULL 24 20 78% 24 75.77 0.0
30 01:15 S 13 16.09 Fair CLR 23 21 89% 75.77 0.0
30 00:55 S 11 16.09 NULL NULL 23 21 89% 75.77 0.0
30 00:35 S 9 16.09 NULL NULL 24 21 83% 24 75.77 0.0
30 00:15 S 11 16.09 NULL NULL 24 22 89% 24 75.74 0.0
29 23:55 S 11 16.09 NULL NULL 25 22 83% 26 75.74 0.0
29 23:35 S 11 16.09 NULL NULL 26 23 84% 28 75.74 0.0
29 23:15 S 11 16.09 NULL NULL 26 23 84% 28 75.74 0.0
29 22:55 SE 7 16.09 NULL NULL 27 24 84% 30 75.74 0.0
29 22:35 S 9 16.09 Fair CLR 27 24 84% 30 75.77 0.0
29 22:15 SE 11 16.09 Fair CLR 27 25 89% 31 75.77 0.0
29 21:55 SE 6 14.48 NULL NULL 26 26 100% 28 75.74 0.0
29 21:35 Calm 16.09 NULL NULL 25 25 100% 25 75.74 0.0
29 21:15 Calm 16.09 NULL NULL 27 26 94% 31 75.72 0.0
29 20:55 Calm 9.66 Fog/Mist NULL 27 27 100% 32 75.69 0.0
29 20:35 Calm 3.22 Light Rain Fog/Mist NULL 28 27 94% 35 75.67 0.0
29 20:15 Calm 11.27 Light Rain CLR 29 27 89% 37 75.67 0.0
29 19:55 Calm 14.48 Fair CLR 30 27 84% 39 75.67 0.0
29 19:35 Calm 16.09 Fair CLR 31 27 79% 41 75.67 0.0
29 19:15 SE 6 16.09 Fair CLR 32 27 75% 42 75.67 0.0
29 18:55 S 6 16.09 Fair CLR 31 27 79% 41 75.67 0.0
29 18:35 S 6 16.09 Fair CLR 32 27 75% 42 75.67 0.0
29 18:15 S 7 16.09 Fair CLR 33 26 67% 42 75.67 0.0
29 17:55 SW 7 16.09 Fair CLR 33 26 67% 42 75.69 0.0
29 17:35 S 7 16.09 Fair CLR 32 27 75% 42 75.69 0.0
29 17:15 S 7 16.09 Fair CLR 32 27 75% 42 75.69 0.0
29 16:55 S 11 16.09 Fair CLR 32 26 71% 41 75.69 0.0
29 16:35 S 15 16.09 Fair CLR 32 25 67% 39 75.69 0.0
29 16:15 SW 17 16.09 Fair CLR 32 25 67% 39 75.72 0.0
29 15:55 S 20 16.09 Fair CLR 32 24 63% 38 75.74 0.0
29 15:35 S 17 16.09 Fair CLR 31 24 66% 37 75.77 0.0
29 15:15 S 17 16.09 Fair CLR 31 24 66% 37 75.77 0.0
29 14:55 S 19 G 30 16.09 Fair CLR 30 23 66% 34 75.79 0.0
29 14:35 S 22 16.09 Fair CLR 30 23 66% 34 75.79 0.0
29 14:15 S 22 16.09 Fair CLR 30 22 62% 33 75.79 0.0
29 13:55 S 22 16.09 Fair CLR 29 21 62% 31 75.82 0.0
29 13:35 S 20 16.09 Fair CLR 29 21 62% 31 75.84 0.0
29 13:15 S 19 16.09 Fair CLR 27 21 70% 29 75.87 0.0
29 12:55 S 22 16.09 Fair CLR 27 21 70% 29 75.87 0.0
29 12:35 S 19 16.09 Fair CLR 25 19 69% 26 75.9 0.0
29 12:15 S 19 16.09 Fair CLR 25 19 69% 26 75.9 0.0
29 11:55 S 20 G 30 16.09 Fair CLR 25 19 69% 26 75.9 0.0
29 11:35 S 20 16.09 Fair CLR 24 19 74% 25 75.92 0.0
29 11:15 S 19 16.09 Fair CLR 25 19 69% 26 75.92 0.0
29 10:55 SW 13 G 26 16.09 Fair CLR 25 19 69% 26 75.95 0.0
29 10:35 S 22 16.09 Fair CLR 25 18 65% 26 75.92 0.0
29 10:15 S 19 G 30 16.09 Fair CLR 25 18 65% 26 75.95 0.0
29 09:55 S 20 16.09 Fair CLR 24 18 69% 25 75.92 0.0
29 09:35 S 20 G 30 16.09 Fair CLR 23 17 69% 75.92 0.0
29 09:15 S 20 G 30 16.09 Fair CLR 23 17 69% 75.95 0.0
29 08:55 S 22 16.09 Fair CLR 22 17 73% 75.95 0.0
29 08:35 S 20 16.09 Fair CLR 22 17 73% 75.97 0.0
29 08:15 S 15 16.09 Fair CLR 21 17 78% 75.97 0.0
29 07:55 S 17 16.09 Fair CLR 21 17 78% 76 0.0
29 07:35 S 20 16.09 Fair CLR 21 17 78% 75.97 0.0
29 07:15 S 20 G 31 16.09 A Few Clouds FEW070 FEW095 FEW110 21 17 78% 75.95 0.0
29 06:55 S 22 G 33 16.09 Partly Cloudy FEW070 FEW095 SCT110 21 17 78% 75.95 0.0
29 06:35 S 19 G 28 16.09 NULL NULL 21 17 78% 75.95 0.0
29 06:15 S 20 G 30 16.09 NULL NULL 21 17 78% 75.97 0.0
29 05:55 S 22 16.09 NULL NULL 21 18 83% 76 0.0
29 05:35 S 22 16.09 NULL NULL 21 18 83% 76 0.0
29 05:15 S 20 16.09 NULL NULL 21 18 83% 76.02 0.0
29 04:55 S 17 16.09 NULL NULL 21 18 83% 76.05 0.0
29 04:35 S 19 16.09 NULL NULL 21 18 83% 76.07 0.0
29 04:15 S 20 16.09 Fair CLR 21 18 83% 76.07 0.0
29 03:55 S 17 16.09 Thunderstorm in Vicinity NULL 21 18 83% 76.07 0.0
29 03:35 S 17 16.09 Fair CLR 21 18 83% 76.07 0.0
29 03:15 S 19 16.09 Fair CLR 21 18 83% 76.1 0.0
29 02:55 S 15 16.09 NULL NULL 21 18 83% 76.1 0.0
29 02:35 S 17 16.09 NULL NULL 22 19 83% 76.07 0.0
29 02:15 S 17 16.09 NULL NULL 22 19 83% 76.1 0.0
29 01:55 S 20 16.09 NULL NULL 22 19 83% 76.1 0.0
29 01:35 S 22 16.09 NULL NULL 22 19 83% 76.12 0.0
29 01:15 S 20 16.09 Fair CLR 22 19 83% 76.12 0.0
29 00:55 S 20 16.09 Fair CLR 23 19 78% 76.15 0.0
29 00:35 S 19 16.09 Fair CLR 23 20 83% 76.15 0.0
29 00:15 S 19 16.09 Fair CLR 23 20 83% 76.15 0.0
28 23:55 S 20 16.09 Fair CLR 23 20 83% 76.15 0.0
28 23:35 S 20 G 30 16.09 NULL NULL 24 20 78% 24 76.15 0.0
28 23:15 S 22 16.09 NULL NULL 24 20 78% 24 76.15 0.0
28 22:55 S 20 16.09 NULL NULL 24 21 83% 24 76.17 0.0
28 22:35 SE 20 16.09 NULL NULL 24 21 83% 24 76.17 0.0
28 22:15 SE 19 16.09 NULL NULL 24 21 83% 24 76.15 0.0
28 21:55 SE 17 16.09 Fair CLR 24 22 89% 24 76.15 0.0
28 21:35 SE 17 16.09 NULL NULL 24 22 89% 24 76.15 0.0
28 21:15 SE 17 G 30 16.09 NULL NULL 24 22 89% 24 76.15 0.0
28 20:55 SE 17 16.09 NULL NULL 25 22 83% 26 76.12 0.0
28 20:35 SE 17 16.09 NULL NULL 25 22 83% 26 76.12 0.0
28 20:15 SE 15 16.09 NULL NULL 25 22 83% 26 76.12 0.0
28 19:55 SE 15 16.09 Fair CLR 26 22 79% 28 76.12 0.0
28 19:35 SE 13 G 24 16.09 Fair CLR 27 22 74% 29 76.15 0.0
28 19:15 S 17 16.09 Fair CLR 28 22 70% 31 76.17 0.0
28 18:55 S 19 16.09 Fair CLR 28 22 70% 31 76.17 0.0
28 18:35 S 20 16.09 Fair CLR 29 22 66% 32 76.2 0.0
28 18:15 S 22 16.09 Fair CLR 29 22 66% 32 76.2 0.0
28 17:35 S 24 16.09 Fair CLR 29 22 66% 32 76.23 0.0
28 17:15 S 24 16.09 Fair CLR 30 22 62% 33 76.23 0.0
28 16:55 S 20 G 30 16.09 Fair CLR 29 22 66% 32 76.25 0.0
28 16:35 S 22 16.09 Fair CLR 29 22 66% 32 76.28 0.0
28 16:15 S 20 16.09 Fair CLR 29 22 66% 32 76.28 0.0
28 15:55 S 20 16.09 Fair CLR 29 22 66% 32 76.3 0.0
28 15:35 S 19 16.09 Fair CLR 29 22 66% 32 76.33 0.0
28 15:15 S 20 16.09 Fair CLR 29 22 66% 32 76.33 0.0
28 14:55 S 20 16.09 Fair CLR 29 22 66% 32 76.35 0.0
28 14:35 S 19 16.09 Fair CLR 28 22 70% 31 76.38 0.0
28 14:15 S 15 G 24 16.09 Fair CLR 28 22 70% 31 76.38 0.0
28 13:55 S 17 16.09 Fair CLR 28 22 70% 31 76.4 0.0
28 13:35 S 15 16.09 Fair CLR 27 21 70% 29 76.43 0.0
28 13:15 S 15 G 26 16.09 Fair CLR 27 21 70% 29 76.45 0.0
28 12:55 S 19 16.09 Fair CLR 27 21 70% 29 76.48 0.0
28 12:35 S 22 16.09 Fair CLR 26 20 70% 27 76.48 0.0
28 12:15 S 22 16.09 Fair CLR 26 21 74% 27 76.5 0.0
28 11:55 S 19 16.09 Fair CLR 26 20 70% 27 76.5 0.0
28 11:35 S 22 16.09 Fair CLR 25 20 74% 26 76.53 0.0
28 11:15 S 19 16.09 Fair CLR 25 20 74% 26 76.53 0.0
28 10:55 S 19 16.09 Fair CLR 25 20 74% 26 76.53 0.0
28 10:35 S 20 16.09 Fair CLR 24 20 78% 24 76.53 0.0
28 10:15 S 19 16.09 Fair CLR 24 20 78% 24 76.53 0.0
28 09:55 S 19 G 28 16.09 Fair CLR 23 19 78% 76.53 0.0
28 09:35 S 20 16.09 Fair CLR 22 20 88% 76.56 0.0
28 09:15 S 17 16.09 Fair CLR 21 19 88% 76.56 0.0
28 08:55 S 15 16.09 Fair CLR 20 19 94% 76.56 0.0
28 08:35 SE 13 16.09 Fair CLR 20 19 94% 76.56 0.0
28 08:15 SE 13 16.09 Fair CLR 19 19 100% 76.56 0.0
28 07:55 SE 9 16.09 Fair CLR 18 18 100% 76.53 0.0
28 07:35 SE 13 16.09 Fair CLR 18 18 100% 76.5 0.0
Date Time (cdt) Wind (kph) Vis. (km) Weather Sky Cond. Air Dwpt Max. Min. Relative Humidity Wind Chill (°C) Heat Index (°C) altimeter (cm) sea level (mb) 1 hr 3 hr 6 hr
6 hour
Temperature (ºC) Pressure Precipitation (cm)